Time;durP1;ratioP1;P1;durP2;ratioP2;P2;SDS_P1;SDS_P2;PMS_P1;PMS_P2;Temp;Humidity;BMP_temperature;BMP_pressure;BME280_temperature;BME280_humidity;BME280_pressure;Samples;Min_cycle;Max_cycle;Signal;HPM_P1;HPM_P2
2023/11/07 00:01:34;;;;;;;7.50;2.60;;;;;;;7.76;62.14;101292.71;107598;1252;109803;-62
2023/11/07 00:04:10;;;;;;;7.60;2.20;;;;;;;7.70;62.05;101294.33;107605;1254;107349;-62
2023/11/07 00:06:40;;;;;;;7.90;2.80;;;;;;;7.66;62.18;101305.13;107504;1251;99202;-62
2023/11/07 00:09:09;;;;;;;7.00;3.00;;;;;;;7.64;62.18;101304.59;107583;1257;99692;-61
2023/11/07 00:11:39;;;;;;;12.20;3.40;;;;;;;7.63;62.43;101309.64;107582;1254;112527;-62
2023/11/07 00:14:07;;;;;;;4.50;2.50;;;;;;;7.62;62.79;101315.90;107582;1254;108635;-62
2023/11/07 00:16:36;;;;;;;7.80;3.20;;;;;;;7.59;62.89;101313.46;107583;1254;108213;-62
2023/11/07 00:19:05;;;;;;;15.10;3.60;;;;;;;7.58;63.16;101317.45;107609;1254;99819;-62
2023/11/07 00:21:34;;;;;;;13.10;3.60;;;;;;;7.57;62.97;101325.39;107577;1253;99809;-63
2023/11/07 00:24:02;;;;;;;12.30;2.80;;;;;;;7.57;63.10;101325.17;107600;1257;113175;-61
2023/11/07 00:26:30;;;;;;;9.10;3.00;;;;;;;7.58;62.96;101327.64;107446;1257;109412;-61
2023/11/07 00:28:59;;;;;;;12.40;3.10;;;;;;;7.57;63.11;101332.18;107570;1251;108298;-63
2023/11/07 00:31:28;;;;;;;12.60;3.30;;;;;;;7.56;63.25;101334.75;107660;1251;99267;-63
2023/11/07 00:33:57;;;;;;;10.20;3.30;;;;;;;7.54;63.37;101335.41;107615;1254;99117;-62
2023/11/07 00:36:25;;;;;;;7.70;3.20;;;;;;;7.50;63.57;101339.79;107560;1254;113226;-63
2023/11/07 00:38:54;;;;;;;4.90;3.00;;;;;;;7.45;63.63;101340.10;107563;1253;108743;-62
2023/11/07 00:41:22;;;;;;;9.70;3.60;;;;;;;7.39;63.60;101352.40;107594;1251;107547;-61
2023/11/07 00:43:51;;;;;;;10.40;3.30;;;;;;;7.36;63.80;101355.30;107623;1251;99209;-63
2023/11/07 00:46:20;;;;;;;6.60;3.00;;;;;;;7.35;63.91;101355.88;107613;1254;99150;-63
2023/11/07 00:48:48;;;;;;;6.10;2.90;;;;;;;7.37;63.84;101358.44;107591;1254;112883;-63
2023/11/07 00:51:17;;;;;;;10.00;2.80;;;;;;;7.41;63.89;101359.14;107563;1251;108808;-63
2023/11/07 00:53:45;;;;;;;14.90;3.30;;;;;;;7.42;63.85;101358.48;107589;1254;107641;-62
2023/11/07 00:56:13;;;;;;;8.70;3.30;;;;;;;7.42;63.67;101360.43;107613;1254;99215;-62
2023/11/07 00:58:43;;;;;;;9.30;3.20;;;;;;;7.43;63.77;101359.48;107645;1251;99153;-63
2023/11/07 01:01:11;;;;;;;10.60;3.00;;;;;;;7.46;63.94;101364.28;107600;1251;113326;-62
2023/11/07 01:03:40;;;;;;;12.90;3.70;;;;;;;7.49;64.08;101368.52;107570;1251;108772;-63
2023/11/07 01:06:08;;;;;;;6.70;2.90;;;;;;;7.51;64.00;101370.92;107499;1254;107928;-62
2023/11/07 01:08:38;;;;;;;10.10;3.30;;;;;;;7.50;64.19;101375.96;107355;1254;99350;-63
2023/11/07 01:11:06;;;;;;;6.80;3.20;;;;;;;7.52;63.93;101376.06;107613;1253;99196;-62
2023/11/07 01:13:34;;;;;;;12.60;3.60;;;;;;;7.53;64.06;101381.11;107587;1256;113058;-63
2023/11/07 01:16:04;;;;;;;11.40;2.80;;;;;;;7.55;64.11;101380.35;107632;1256;109010;-63
2023/11/07 01:18:32;;;;;;;11.10;3.40;;;;;;;7.55;64.08;101379.61;107466;1254;106272;-63
2023/11/07 01:21:01;;;;;;;10.90;3.00;;;;;;;7.55;64.20;101374.80;107383;1254;99369;-63
2023/11/07 01:23:29;;;;;;;7.30;2.80;;;;;;;7.57;64.27;101376.46;107626;1253;99194;-62
2023/11/07 01:25:58;;;;;;;12.90;3.50;;;;;;;7.58;64.16;101382.96;107649;1253;113645;-63
2023/11/07 01:28:26;;;;;;;8.30;3.60;;;;;;;7.57;63.93;101383.08;107527;1254;109945;-62
2023/11/07 01:30:55;;;;;;;9.30;2.90;;;;;;;7.52;63.94;101387.08;107574;1257;107219;-62
2023/11/07 01:33:24;;;;;;;11.50;3.90;;;;;;;7.45;63.71;101393.60;107544;1251;99193;-62
2023/11/07 01:35:53;;;;;;;8.20;3.40;;;;;;;7.39;63.66;101393.11;107627;1251;99718;-63
2023/11/07 01:38:21;;;;;;;14.30;3.40;;;;;;;7.28;63.58;101384.58;107651;1251;111783;-62
2023/11/07 01:40:49;;;;;;;12.40;3.30;;;;;;;7.25;63.64;101390.84;107611;1251;108992;-61
2023/11/07 01:43:18;;;;;;;9.60;4.30;;;;;;;7.20;63.49;101389.69;107654;1251;107805;-62
2023/11/07 01:45:46;;;;;;;8.40;4.10;;;;;;;7.16;63.34;101393.52;107578;1252;99211;-63
2023/11/07 01:48:21;;;;;;;9.90;3.40;;;;;;;7.12;63.54;101400.00;107602;1251;99179;-63
2023/11/07 01:50:49;;;;;;;6.90;3.20;;;;;;;7.11;63.50;101400.11;107727;1251;111839;-63
2023/11/07 01:53:20;;;;;;;11.90;2.80;;;;;;;7.06;63.46;101399.70;107617;1251;108609;-63
2023/11/07 01:55:48;;;;;;;7.90;3.00;;;;;;;7.00;63.78;101400.08;107634;1251;107967;-62
2023/11/07 01:58:19;;;;;;;14.30;3.10;;;;;;;6.93;63.26;101407.84;107564;1251;99141;-62
2023/11/07 02:00:53;;;;;;;9.70;3.60;;;;;;;6.85;63.34;101414.95;107654;1254;99227;-63
2023/11/07 02:03:24;;;;;;;8.60;3.10;;;;;;;6.76;63.25;101414.77;107555;1253;113147;-62
2023/11/07 02:05:53;;;;;;;13.40;3.60;;;;;;;6.68;63.35;101418.47;107660;1254;110310;-62
2023/11/07 02:08:23;;;;;;;10.70;2.80;;;;;;;6.62;63.74;101423.12;107473;1252;108244;-62
2023/11/07 02:10:51;;;;;;;14.90;2.80;;;;;;;6.58;63.86;101418.02;107444;1254;99157;-62
2023/11/07 02:13:20;;;;;;;14.10;3.60;;;;;;;6.55;64.02;101411.95;107402;1254;99182;-62
2023/11/07 02:15:48;;;;;;;5.90;3.20;;;;;;;6.51;63.93;101413.63;107433;1254;113046;-62
2023/11/07 02:18:16;;;;;;;8.90;3.10;;;;;;;6.46;64.16;101409.30;107612;1251;109382;-63
2023/11/07 02:20:48;;;;;;;9.90;3.00;;;;;;;6.41;64.06;101413.87;107642;1251;108286;-63
2023/11/07 02:23:29;;;;;;;10.00;2.70;;;;;;;6.36;63.93;101419.14;107590;1251;99185;-61
2023/11/07 02:25:57;;;;;;;7.40;2.70;;;;;;;6.31;63.91;101426.26;107527;1251;99169;-62
2023/11/07 02:28:26;;;;;;;10.20;2.90;;;;;;;6.24;63.91;101429.27;107595;1254;113555;-62
2023/11/07 02:30:55;;;;;;;14.40;3.20;;;;;;;6.21;64.19;101432.52;107604;1254;109175;-63
2023/11/07 02:33:23;;;;;;;12.00;3.30;;;;;;;6.19;64.48;101430.66;107610;1254;107961;-62
2023/11/07 02:35:52;;;;;;;6.40;2.80;;;;;;;6.21;64.98;101428.95;107630;1254;99178;-62
2023/11/07 02:38:22;;;;;;;5.50;2.30;;;;;;;6.26;65.53;101427.59;107634;1254;99083;-62
2023/11/07 02:40:51;;;;;;;6.70;3.30;;;;;;;6.31;65.58;101433.00;107618;1251;113125;-62
2023/11/07 02:43:19;;;;;;;11.20;3.20;;;;;;;6.34;65.46;101434.95;107614;1251;109440;-62
2023/11/07 02:45:49;;;;;;;17.40;3.60;;;;;;;6.35;65.91;101435.98;107490;1254;107272;-61
2023/11/07 02:48:17;;;;;;;16.00;3.60;;;;;;;6.33;66.17;101439.83;107600;1252;99659;-62
2023/11/07 02:50:46;;;;;;;10.30;3.00;;;;;;;6.30;65.94;101447.48;107626;1252;99134;-62
2023/11/07 02:53:15;;;;;;;4.90;2.60;;;;;;;6.32;66.17;101449.87;107638;1256;113135;-62
2023/11/07 02:55:45;;;;;;;5.50;2.80;;;;;;;6.30;66.02;101453.55;107658;1252;109617;-62
2023/11/07 02:58:15;;;;;;;13.30;3.00;;;;;;;6.29;65.75;101448.84;107468;1253;107626;-63
2023/11/07 03:00:44;;;;;;;12.50;3.60;;;;;;;6.30;66.11;101449.81;107656;1254;99185;-61
2023/11/07 03:03:14;;;;;;;8.20;2.70;;;;;;;6.32;65.93;101455.05;107605;1254;99745;-61
2023/11/07 03:05:43;;;;;;;14.50;2.90;;;;;;;6.32;65.96;101456.61;107638;1251;112435;-62
2023/11/07 03:08:12;;;;;;;14.00;2.80;;;;;;;6.33;65.80;101456.39;107594;1253;109289;-62
2023/11/07 03:10:40;;;;;;;11.40;2.80;;;;;;;6.34;66.16;101463.46;107590;1252;108186;-64
2023/11/07 03:13:09;;;;;;;7.70;2.80;;;;;;;6.33;66.22;101463.52;107593;1251;99198;-62
2023/11/07 03:15:37;;;;;;;12.50;2.90;;;;;;;6.34;66.22;101458.45;107612;1251;99193;-62
2023/11/07 03:18:05;;;;;;;12.00;2.90;;;;;;;6.36;66.38;101458.68;107653;1251;114134;-62
2023/11/07 03:20:35;;;;;;;14.00;3.10;;;;;;;6.36;66.26;101461.55;107532;1251;109519;-63
2023/11/07 03:23:05;;;;;;;10.70;2.80;;;;;;;6.34;66.17;101467.39;107588;1251;107113;-62
2023/11/07 03:25:33;;;;;;;9.80;3.00;;;;;;;6.33;65.94;101467.96;107568;1253;99179;-62
2023/11/07 03:28:02;;;;;;;5.70;3.00;;;;;;;6.30;65.90;101469.75;107639;1254;99223;-61
2023/11/07 03:30:31;;;;;;;6.40;3.20;;;;;;;6.26;65.89;101463.58;107636;1253;113161;-63
2023/11/07 03:32:59;;;;;;;12.80;3.10;;;;;;;6.23;65.71;101464.12;107679;1253;109835;-63
2023/11/07 03:35:29;;;;;;;11.10;3.80;;;;;;;6.16;65.56;101464.66;107633;1255;108575;-63
2023/11/07 03:37:58;;;;;;;7.90;3.50;;;;;;;6.05;65.33;101467.61;107640;1251;99189;-62
2023/11/07 03:40:27;;;;;;;4.90;2.70;;;;;;;5.97;65.59;101470.03;107631;1251;99182;-62
2023/11/07 03:42:55;;;;;;;12.60;3.60;;;;;;;5.91;65.49;101473.91;107671;1251;112898;-63
2023/11/07 03:45:23;;;;;;;8.70;2.80;;;;;;;5.87;65.67;101468.63;107608;1253;109867;-62
2023/11/07 03:47:52;;;;;;;6.20;3.10;;;;;;;5.85;65.68;101473.02;107595;1251;108545;-63
2023/11/07 03:50:22;;;;;;;8.80;2.90;;;;;;;5.82;65.92;101471.43;107583;1253;99225;-63
2023/11/07 03:52:51;;;;;;;9.00;3.00;;;;;;;5.77;65.65;101473.13;107631;1254;99198;-63
2023/11/07 03:55:19;;;;;;;9.00;3.30;;;;;;;5.66;65.75;101473.20;107629;1251;112052;-63
2023/11/07 03:57:48;;;;;;;9.40;2.70;;;;;;;5.56;65.39;101481.39;107668;1250;109361;-63
2023/11/07 04:00:17;;;;;;;9.30;2.70;;;;;;;5.48;65.46;101485.05;107637;1251;107629;-63
2023/11/07 04:02:46;;;;;;;12.10;3.20;;;;;;;5.43;66.08;101494.22;107632;1251;99166;-62
2023/11/07 04:05:14;;;;;;;11.80;2.90;;;;;;;5.39;66.29;101495.36;107626;1251;99208;-63
2023/11/07 04:07:42;;;;;;;9.90;3.30;;;;;;;5.36;66.22;101498.38;107661;1252;114094;-62
2023/11/07 04:10:11;;;;;;;7.00;2.90;;;;;;;5.36;66.55;101495.36;107682;1252;109713;-63
2023/11/07 04:12:40;;;;;;;10.20;3.40;;;;;;;5.35;66.16;101500.73;107599;1253;107149;-62
2023/11/07 04:15:09;;;;;;;10.10;3.90;;;;;;;5.35;66.36;101498.61;107579;1253;99137;-62
2023/11/07 04:17:38;;;;;;;8.80;2.90;;;;;;;5.33;66.38;101496.41;107636;1252;99182;-63
2023/11/07 04:20:10;;;;;;;9.60;4.10;;;;;;;5.29;66.32;101497.30;107631;1255;112775;-62
2023/11/07 04:22:39;;;;;;;10.30;3.90;;;;;;;5.26;66.38;101497.11;107519;1253;108966;-61
2023/11/07 04:25:08;;;;;;;5.30;2.30;;;;;;;5.24;66.79;101499.02;107591;1253;107282;-62
2023/11/07 04:27:36;;;;;;;10.30;3.60;;;;;;;5.23;66.92;101501.20;107644;1255;99343;-63
2023/11/07 04:30:06;;;;;;;12.10;2.80;;;;;;;5.26;67.26;101503.21;107570;1253;99113;-62
2023/11/07 04:32:35;;;;;;;10.10;3.20;;;;;;;5.28;67.70;101505.73;107667;1253;112794;-62
2023/11/07 04:35:06;;;;;;;12.80;3.10;;;;;;;5.31;67.91;101501.64;107541;1256;109292;-62
2023/11/07 04:37:34;;;;;;;6.60;2.60;;;;;;;5.36;68.02;101506.04;107445;1251;107281;-62
2023/11/07 04:40:04;;;;;;;11.00;2.90;;;;;;;5.38;68.19;101511.06;107602;1251;99240;-63
2023/11/07 04:42:32;;;;;;;17.80;3.00;;;;;;;5.41;68.17;101512.52;107633;1251;99193;-63
2023/11/07 04:45:01;;;;;;;15.30;3.30;;;;;;;5.42;68.24;101509.81;107575;1252;112429;-62
2023/11/07 04:47:30;;;;;;;16.50;5.60;;;;;;;5.38;68.12;101505.19;107635;1253;108974;-64
2023/11/07 04:49:59;;;;;;;18.50;3.80;;;;;;;5.37;68.15;101511.14;107547;1251;108405;-63
2023/11/07 04:52:28;;;;;;;21.10;3.30;;;;;;;5.39;68.50;101512.43;107624;1251;99073;-62
2023/11/07 04:54:57;;;;;;;15.70;2.80;;;;;;;5.43;68.51;101514.89;107584;1251;99235;-63
2023/11/07 04:57:25;;;;;;;19.10;3.30;;;;;;;5.43;68.50;101516.10;107564;1251;113695;-63
2023/11/07 04:59:54;;;;;;;16.10;3.30;;;;;;;5.42;68.63;101518.33;107581;1251;109827;-62
2023/11/07 05:02:22;;;;;;;10.20;3.20;;;;;;;5.43;68.52;101525.21;107548;1253;107130;-62
2023/11/07 05:04:51;;;;;;;21.00;4.30;;;;;;;5.46;68.28;101522.20;107578;1255;99193;-61
2023/11/07 05:07:23;;;;;;;15.90;4.00;;;;;;;5.49;68.37;101522.02;107647;1253;99196;-62
2023/11/07 05:09:55;;;;;;;23.50;4.00;;;;;;;5.54;68.61;101526.91;107624;1252;113085;-63
2023/11/07 05:12:23;;;;;;;30.90;4.80;;;;;;;5.59;68.56;101533.58;107598;1253;109836;-63
2023/11/07 05:14:51;;;;;;;30.60;5.00;;;;;;;5.63;68.34;101536.56;107573;1251;108151;-63
2023/11/07 05:17:20;;;;;;;36.70;4.80;;;;;;;5.65;68.42;101534.66;107569;1253;99194;-62
2023/11/07 05:19:49;;;;;;;31.70;4.10;;;;;;;5.69;68.68;101533.73;107462;1256;99199;-63
2023/11/07 05:22:17;;;;;;;16.90;4.20;;;;;;;5.73;68.67;101538.71;107624;1253;112594;-62
2023/11/07 05:24:45;;;;;;;22.30;4.10;;;;;;;5.73;68.17;101536.75;107589;1251;109880;-63
2023/11/07 05:27:13;;;;;;;18.70;3.80;;;;;;;5.71;67.93;101540.21;107553;1251;108134;-62
2023/11/07 05:29:42;;;;;;;11.90;4.80;;;;;;;5.70;67.86;101545.62;107568;1251;99075;-64
2023/11/07 05:32:11;;;;;;;38.40;5.90;;;;;;;5.65;67.74;101548.00;107568;1253;99189;-62
2023/11/07 05:34:40;;;;;;;17.20;4.10;;;;;;;5.61;67.65;101552.33;107629;1252;112879;-62
2023/11/07 05:37:08;;;;;;;20.70;4.40;;;;;;;5.58;67.55;101556.08;107664;1251;109810;-62
2023/11/07 05:39:36;;;;;;;12.50;5.30;;;;;;;5.57;67.50;101563.60;107577;1252;108771;-62
2023/11/07 05:42:06;;;;;;;15.80;5.90;;;;;;;5.57;67.60;101563.25;107629;1253;99165;-62
2023/11/07 05:44:35;;;;;;;23.40;6.30;;;;;;;5.54;67.56;101563.21;107578;1253;99746;-62
2023/11/07 05:47:04;;;;;;;20.20;6.60;;;;;;;5.53;67.53;101568.79;107625;1251;112671;-62
2023/11/07 05:49:33;;;;;;;20.20;5.20;;;;;;;5.51;67.72;101570.14;107631;1251;110204;-62
2023/11/07 05:52:03;;;;;;;20.70;5.80;;;;;;;5.48;67.61;101580.08;107624;1251;107397;-62
2023/11/07 05:54:31;;;;;;;25.90;6.20;;;;;;;5.43;67.70;101580.14;107647;1251;99282;-62
2023/11/07 05:56:59;;;;;;;19.80;5.60;;;;;;;5.44;67.69;101582.25;107642;1251;99067;-62
2023/11/07 05:59:28;;;;;;;22.10;5.30;;;;;;;5.49;68.25;101584.48;107628;1252;112430;-62
2023/11/07 06:01:56;;;;;;;20.90;7.50;;;;;;;5.53;68.20;101580.72;107593;1252;109296;-62
2023/11/07 06:04:30;;;;;;;15.20;5.90;;;;;;;5.58;68.47;101584.33;107591;1251;108375;-62
2023/11/07 06:07:01;;;;;;;20.50;7.10;;;;;;;5.73;68.76;101586.73;107567;1251;99181;-63
2023/11/07 06:09:30;;;;;;;18.20;6.60;;;;;;;5.86;68.90;101589.08;107677;1251;99071;-62
2023/11/07 06:11:58;;;;;;;23.60;6.40;;;;;;;5.92;68.63;101593.70;107599;1252;112268;-63
2023/11/07 06:14:27;;;;;;;11.00;5.50;;;;;;;5.96;68.68;101594.55;107553;1255;109440;-63
2023/11/07 06:16:55;;;;;;;21.50;6.60;;;;;;;6.01;68.77;101599.27;107566;1253;107776;-62
2023/11/07 06:19:23;;;;;;;17.50;5.40;;;;;;;6.09;68.95;101602.95;107554;1255;99395;-63
2023/11/07 06:21:52;;;;;;;22.30;7.90;;;;;;;6.16;68.88;101603.79;107545;1255;99211;-61
2023/11/07 06:24:20;;;;;;;16.80;6.50;;;;;;;6.25;68.93;101605.23;107649;1251;113237;-61
2023/11/07 06:26:48;;;;;;;25.20;6.60;;;;;;;6.34;69.17;101602.59;107602;1253;108704;-62
2023/11/07 06:29:16;;;;;;;31.50;6.50;;;;;;;6.45;69.16;101606.60;107621;1251;108338;-62
2023/11/07 06:31:45;;;;;;;27.70;6.10;;;;;;;6.56;69.12;101608.10;107536;1252;99154;-62
2023/11/07 06:34:14;;;;;;;23.30;6.70;;;;;;;6.69;69.35;101611.63;107518;1253;99148;-61
2023/11/07 06:36:43;;;;;;;26.80;7.80;;;;;;;6.82;69.44;101607.50;107653;1253;113496;-62
2023/11/07 06:39:12;;;;;;;23.10;7.60;;;;;;;6.95;69.41;101605.68;107598;1251;109421;-62
2023/11/07 06:41:40;;;;;;;28.90;7.10;;;;;;;7.09;69.45;101603.56;107491;1251;108117;-63
2023/11/07 06:44:09;;;;;;;22.90;8.40;;;;;;;7.22;69.53;101605.42;107586;1251;99188;-62
2023/11/07 06:46:41;;;;;;;35.20;8.40;;;;;;;7.36;69.39;101606.40;107568;1253;99211;-62
2023/11/07 06:49:10;;;;;;;29.10;6.50;;;;;;;7.50;69.27;101604.64;107600;1251;112063;-63
2023/11/07 06:51:39;;;;;;;24.60;5.50;;;;;;;7.62;69.27;101606.17;107469;1252;109868;-63
2023/11/07 06:54:08;;;;;;;15.90;6.10;;;;;;;7.74;69.11;101601.89;107575;1254;107695;-63
2023/11/07 06:56:38;;;;;;;10.10;5.60;;;;;;;7.88;69.00;101605.52;107609;1253;99340;-62
2023/11/07 06:59:07;;;;;;;19.70;7.00;;;;;;;7.97;68.93;101607.36;107599;1251;99224;-62
2023/11/07 07:01:35;;;;;;;14.90;6.70;;;;;;;8.07;68.50;101610.33;107592;1253;112374;-62
2023/11/07 07:04:05;;;;;;;23.70;9.30;;;;;;;8.17;68.52;101607.52;107530;1251;110854;-63
2023/11/07 07:06:35;;;;;;;19.10;10.60;;;;;;;8.29;68.43;101610.38;107528;1254;107508;-64
2023/11/07 07:09:04;;;;;;;27.00;12.40;;;;;;;8.39;68.19;101615.59;107525;1252;99203;-61
2023/11/07 07:11:33;;;;;;;20.50;10.60;;;;;;;8.51;68.08;101615.01;107639;1252;99268;-61
2023/11/07 07:14:02;;;;;;;24.50;9.80;;;;;;;8.62;67.88;101613.58;107651;1251;112241;-62
2023/11/07 07:16:32;;;;;;;19.40;9.10;;;;;;;8.70;67.26;101611.05;107617;1253;109289;-62
2023/11/07 07:19:06;;;;;;;18.30;9.40;;;;;;;8.77;66.63;101614.56;107602;1251;108182;-62
2023/11/07 07:21:34;;;;;;;21.10;9.20;;;;;;;8.81;66.57;101616.42;107563;1254;99061;-62
2023/11/07 07:24:15;;;;;;;18.30;8.30;;;;;;;8.90;66.42;101617.08;107630;1251;99156;-62
2023/11/07 07:26:45;;;;;;;20.20;7.70;;;;;;;9.01;66.31;101615.99;107490;1253;113442;-62
2023/11/07 07:29:15;;;;;;;19.20;8.00;;;;;;;9.10;66.02;101612.70;107651;1251;110204;-62
2023/11/07 07:31:44;;;;;;;23.20;7.40;;;;;;;9.18;65.93;101614.98;107569;1254;106080;-61
2023/11/07 07:34:12;;;;;;;14.50;6.20;;;;;;;9.28;65.43;101621.48;107496;1255;99280;-62
2023/11/07 07:36:44;;;;;;;12.30;5.90;;;;;;;9.36;65.16;101618.41;107537;1252;99068;-62
2023/11/07 07:39:27;;;;;;;13.40;5.20;;;;;;;9.47;64.60;101616.41;107482;1252;113209;-62
2023/11/07 07:42:08;;;;;;;10.90;5.50;;;;;;;9.58;64.50;101613.30;107493;1253;109252;-62
2023/11/07 07:44:38;;;;;;;15.20;6.00;;;;;;;9.72;64.33;101619.23;107442;1251;107961;-61
2023/11/07 07:47:10;;;;;;;15.20;5.50;;;;;;;9.87;64.45;101615.67;107434;1254;99286;-62
2023/11/07 07:49:40;;;;;;;17.60;6.70;;;;;;;10.05;64.27;101615.98;107541;1251;99094;-62
2023/11/07 07:52:09;;;;;;;21.30;6.30;;;;;;;10.24;64.17;101618.02;107603;1253;113220;-63
2023/11/07 07:54:38;;;;;;;21.90;6.90;;;;;;;10.42;63.95;101619.26;107615;1252;107370;-63
2023/11/07 07:57:10;;;;;;;23.90;6.40;;;;;;;10.60;63.57;101617.23;107597;1255;108663;-63
2023/11/07 07:59:41;;;;;;;18.70;5.50;;;;;;;10.81;63.44;101616.38;107627;1253;99193;-61
2023/11/07 08:02:11;;;;;;;19.90;6.40;;;;;;;11.03;63.34;101614.14;107650;1254;99746;-62
2023/11/07 08:04:39;;;;;;;24.60;6.10;;;;;;;11.24;62.84;101612.33;107620;1251;113044;-64
2023/11/07 08:07:08;;;;;;;14.60;5.40;;;;;;;11.47;62.06;101610.73;107582;1251;109546;-62
2023/11/07 08:09:40;;;;;;;20.30;5.70;;;;;;;11.67;61.77;101611.29;107402;1257;107132;-62
2023/11/07 08:12:11;;;;;;;13.50;5.20;;;;;;;11.87;61.53;101611.36;107590;1252;99048;-63
2023/11/07 08:14:42;;;;;;;12.90;5.50;;;;;;;12.09;61.01;101615.52;107567;1251;99184;-61
2023/11/07 08:17:11;;;;;;;17.50;6.00;;;;;;;12.27;59.49;101609.38;107559;1251;112933;-62
2023/11/07 08:19:39;;;;;;;15.80;6.10;;;;;;;12.46;58.86;101611.75;107576;1251;108887;-62
2023/11/07 08:22:08;;;;;;;26.00;7.10;;;;;;;12.66;59.06;101607.82;107585;1251;107369;-62
2023/11/07 08:24:36;;;;;;;20.60;7.00;;;;;;;12.87;58.82;101607.30;107612;1252;99192;-62
2023/11/07 08:27:04;;;;;;;21.40;6.50;;;;;;;13.08;58.80;101604.80;107611;1253;99177;-63
2023/11/07 08:29:33;;;;;;;22.70;6.10;;;;;;;13.28;58.24;101599.41;107566;1253;112860;-61
2023/11/07 08:32:04;;;;;;;15.40;5.60;;;;;;;13.51;57.50;101597.68;107583;1251;109569;-63
2023/11/07 08:34:33;;;;;;;25.30;6.00;;;;;;;13.75;57.31;101597.75;107619;1251;108201;-63
2023/11/07 08:37:04;;;;;;;16.00;5.50;;;;;;;13.99;56.45;101593.84;107637;1251;99182;-64
2023/11/07 08:39:40;;;;;;;21.00;5.60;;;;;;;14.24;56.09;101588.13;107613;1254;99056;-65
2023/11/07 08:42:10;;;;;;;15.00;5.60;;;;;;;14.59;55.63;101588.60;107606;1251;113117;-62
2023/11/07 08:44:39;;;;;;;17.00;6.10;;;;;;;15.12;55.06;101591.23;107638;1251;109952;-63
2023/11/07 08:47:07;;;;;;;18.30;5.30;;;;;;;15.88;53.92;101589.19;107540;1252;108357;-63
2023/11/07 08:49:37;;;;;;;16.60;6.80;;;;;;;16.90;52.52;101582.05;107481;1257;99187;-62
2023/11/07 08:52:06;;;;;;;21.90;6.60;;;;;;;17.91;51.64;101577.97;107600;1255;99839;-62
2023/11/07 08:54:36;;;;;;;15.90;6.80;;;;;;;18.81;49.42;101573.50;107522;1252;113118;-62
2023/11/07 08:57:05;;;;;;;19.00;5.90;;;;;;;19.64;48.27;101576.73;107636;1254;109898;-63
2023/11/07 08:59:38;;;;;;;15.30;6.50;;;;;;;20.44;46.53;101574.67;107624;1255;108122;-62
2023/11/07 09:02:07;;;;;;;20.20;6.80;;;;;;;21.27;45.84;101569.25;107623;1252;99178;-62
2023/11/07 09:04:35;;;;;;;16.30;6.60;;;;;;;22.03;45.34;101562.69;107591;1252;99705;-63
2023/11/07 09:07:06;;;;;;;17.10;6.90;;;;;;;22.75;42.84;101557.73;107630;1253;113842;-63
2023/11/07 09:09:35;;;;;;;11.30;5.80;;;;;;;23.40;40.90;101557.37;107640;1253;109584;-63
2023/11/07 09:12:05;;;;;;;15.90;6.50;;;;;;;24.01;39.83;101553.77;107585;1251;107950;-63
2023/11/07 09:14:33;;;;;;;12.50;6.30;;;;;;;24.52;38.27;101554.71;107596;1251;99195;-63
2023/11/07 09:17:02;;;;;;;18.20;6.90;;;;;;;25.14;37.93;101553.10;107622;1252;99744;-62
2023/11/07 09:19:30;;;;;;;16.10;6.50;;;;;;;25.80;36.79;101552.66;107652;1251;112928;-63
2023/11/07 09:22:00;;;;;;;13.60;6.00;;;;;;;26.51;35.92;101547.85;107580;1252;109219;-64
2023/11/07 09:24:28;;;;;;;17.60;6.10;;;;;;;27.27;35.06;101541.35;107569;1251;108604;-63
2023/11/07 09:26:57;;;;;;;15.70;6.50;;;;;;;27.80;34.21;101533.30;107595;1253;99187;-64
2023/11/07 09:29:27;;;;;;;14.40;4.60;;;;;;;28.24;31.60;101527.09;107615;1251;99728;-62
2023/11/07 09:31:56;;;;;;;14.30;4.40;;;;;;;28.55;29.57;101529.20;107565;1253;112981;-63
2023/11/07 09:34:24;;;;;;;14.10;3.90;;;;;;;28.71;28.65;101527.79;107588;1253;109824;-63
2023/11/07 09:36:53;;;;;;;17.70;4.80;;;;;;;28.98;28.74;101526.11;107578;1253;107603;-62
2023/11/07 09:39:21;;;;;;;12.20;3.00;;;;;;;29.30;26.82;101529.83;107592;1253;99189;-63
2023/11/07 09:41:50;;;;;;;13.50;2.90;;;;;;;29.25;23.06;101529.15;107580;1251;99819;-63
2023/11/07 09:44:19;;;;;;;7.70;2.90;;;;;;;29.17;23.79;101523.92;107547;1251;111826;-63
2023/11/07 09:46:49;;;;;;;6.00;2.70;;;;;;;29.20;23.57;101520.66;107593;1253;109258;-62
2023/11/07 09:49:17;;;;;;;4.10;2.60;;;;;;;29.31;23.10;101517.73;107575;1253;107061;-63
2023/11/07 09:51:50;;;;;;;11.60;3.50;;;;;;;29.40;23.12;101506.10;107556;1251;99206;-63
2023/11/07 09:54:24;;;;;;;12.90;3.10;;;;;;;29.60;24.24;101498.23;107634;1251;99191;-62
2023/11/07 09:56:54;;;;;;;8.70;3.40;;;;;;;29.94;24.13;101494.19;107589;1254;112845;-62
2023/11/07 09:59:38;;;;;;;9.20;4.00;;;;;;;30.26;23.12;101493.66;107647;1253;109506;-64
2023/11/07 10:02:07;;;;;;;9.40;4.50;;;;;;;30.42;22.11;101489.69;107578;1251;107488;-63
2023/11/07 10:04:39;;;;;;;12.70;3.40;;;;;;;30.60;22.42;101483.95;107581;1253;99282;-64
2023/11/07 10:07:08;;;;;;;11.60;3.70;;;;;;;30.70;20.99;101484.05;107459;1251;99733;-64
2023/11/07 10:09:36;;;;;;;7.30;3.40;;;;;;;30.47;21.63;101484.06;107617;1251;112605;-63
2023/11/07 10:12:14;;;;;;;11.30;3.60;;;;;;;30.33;20.98;101480.29;107238;1252;473550;-64
2023/11/07 10:14:43;;;;;;;8.70;3.20;;;;;;;29.89;21.09;101480.99;107565;1253;108422;-64
2023/11/07 10:17:22;;;;;;;7.60;3.90;;;;;;;29.76;20.56;101479.70;107562;1253;99247;-63
2023/11/07 10:20:05;;;;;;;9.30;4.40;;;;;;;29.45;21.46;101468.77;107564;1251;99182;-63
2023/11/07 10:22:53;;;;;;;13.40;4.20;;;;;;;29.10;22.69;101471.42;107584;1251;111306;-63
2023/11/07 10:25:29;;;;;;;7.80;3.70;;;;;;;29.11;22.36;101470.48;107650;1252;108149;-63
2023/11/07 10:28:00;;;;;;;6.60;3.50;;;;;;;29.17;22.75;101461.75;107582;1255;108051;-63
2023/11/07 10:30:49;;;;;;;7.10;4.00;;;;;;;29.29;21.95;101460.17;107574;1252;99180;-64
2023/11/07 10:33:44;;;;;;;9.90;4.90;;;;;;;29.58;22.59;101460.39;107612;1253;99179;-64
2023/11/07 10:36:12;;;;;;;11.20;4.00;;;;;;;29.77;21.39;101455.19;107552;1255;112112;-63
2023/11/07 10:38:41;;;;;;;9.10;4.40;;;;;;;29.68;21.98;101446.73;107601;1252;109201;-63
2023/11/07 10:41:26;;;;;;;9.50;3.50;;;;;;;29.80;21.75;101449.10;107605;1252;108690;-64
2023/11/07 10:43:54;;;;;;;9.00;3.70;;;;;;;29.51;21.30;101451.50;107506;1252;99275;-63
2023/11/07 10:46:23;;;;;;;14.10;3.80;;;;;;;29.34;21.35;101450.98;107379;1251;101153;-63
2023/11/07 10:48:53;;;;;;;13.50;3.90;;;;;;;28.77;21.67;101446.29;107524;1255;113170;-63
2023/11/07 10:51:23;;;;;;;19.80;4.80;;;;;;;28.35;22.77;101440.77;107616;1251;109940;-63
2023/11/07 10:53:52;;;;;;;9.00;3.60;;;;;;;28.26;22.48;101438.95;107538;1251;108417;-62
2023/11/07 10:56:21;;;;;;;8.20;4.40;;;;;;;28.02;22.90;101431.15;107553;1252;99280;-64
2023/11/07 10:58:52;;;;;;;8.50;4.00;;;;;;;27.82;22.97;101430.19;107635;1252;99878;-62
2023/11/07 11:01:20;;;;;;;10.70;3.50;;;;;;;27.59;23.03;101429.45;107646;1251;113342;-64
2023/11/07 11:03:50;;;;;;;7.80;3.70;;;;;;;27.42;22.89;101427.16;107624;1251;109523;-64
2023/11/07 11:06:23;;;;;;;7.20;3.00;;;;;;;27.15;23.16;101427.52;107595;1251;108139;-63
2023/11/07 11:08:56;;;;;;;9.30;3.20;;;;;;;27.08;23.37;101421.63;107590;1255;99186;-63
2023/11/07 11:11:25;;;;;;;8.70;2.60;;;;;;;26.98;23.68;101414.83;107574;1251;99721;-62
2023/11/07 11:13:57;;;;;;;7.30;2.90;;;;;;;26.97;23.98;101408.13;107606;1251;113304;-64
2023/11/07 11:16:27;;;;;;;12.60;3.00;;;;;;;26.69;24.48;101400.86;107511;1257;110029;-65
2023/11/07 11:18:59;;;;;;;5.80;3.00;;;;;;;26.45;24.42;101395.41;107622;1253;107195;-63
2023/11/07 11:21:40;;;;;;;6.60;2.80;;;;;;;26.12;24.60;101389.55;107541;1256;99342;-65
2023/11/07 11:24:13;;;;;;;5.40;2.20;;;;;;;25.92;24.77;101383.92;107636;1251;99805;-64